Página principal
METAR-TAF:

METAR-TAF

Aeroportos :

Aeroporto Internacional de Port Moresby

Port Moresby, Papua-Nova Guiné

latitude: 09-26S, longitude: 147-13E, altura: 38 m

Observação actual do tempo

O boletim foi feito há 33 minutos, às 12:00 UTC
Vento 5 kt de es-sudeste
Temperatura 27°C
Humidade 89%
Pressão 1008 hPa
Visibilidade 10 km ou mais
Nuvens dispersasa uma altura de 4000 ft

METAR: AYPY 161200Z 12005KT 9999 SCT040 27/25 Q1008

Hora: 22:33 (12:33 UTC)

Previsão

O boletim foi feito há 9 horas e 3 minutos, às 03:30 UTC
Previsão válida de 16 às 06 UTC a 17 às 06 UTC
Vento 7 kt de sul
Visibilidade: 1008 m
Nuvens dispersasa uma altura de 2000 ft

TAF: AYPY 160330Z 1606/1706 18007KT 9999 SCT020 T 31 29 27 25 Q 1006 1007 1009 1008

Observações e previsões do tempo de mais de 4000 aeroportos (mensagens METAR e TAF).

As estações disponíveis são os pontos amarelos e vermelhos sobre o mapa.

Mova o rato sobre o mapa para ver o nome da estação.

Depois clique no ponto para visualizar as observações e previsões meteorológicas.

Para alterar o mapa : clique nos botões verdes com uma cruz preta para aumentar o zoom; no botão verde com uma pitada de zoom; ou nas setas verdes para mapas adjacentes.


METAR-TAF: